Time,TemperatureF,DewpointF,PressureIn,WindDirection,WindDirectionDegrees,WindSpeedMPH,WindSpeedGustMPH,Humidity,HourlyPrecipIn,Conditions,Clouds,dailyrainin,SoftwareType,DateUTC
2013-01-20 00:01:00,49.4,47.7,30.16,SSE,148,0.0,0.0,94,0.00,,,0.00,Wunderground v.1.15,2013-01-20 05:01:00,
2013-01-20 00:10:00,49.3,47.9,30.16,SSE,148,0.0,0.0,95,0.00,,,0.00,Wunderground v.1.15,2013-01-20 05:10:00,
2013-01-20 00:20:00,49.1,47.7,30.16,SSE,148,0.0,0.0,95,0.00,,,0.00,Wunderground v.1.15,2013-01-20 05:20:00,
2013-01-20 00:30:00,49.6,48.2,30.15,SSE,148,0.0,0.0,95,0.00,,,0.00,Wunderground v.1.15,2013-01-20 05:30:00,
2013-01-20 00:40:00,49.5,48.1,30.15,SSE,148,0.0,0.0,95,0.00,,,0.00,Wunderground v.1.15,2013-01-20 05:40:00,
2013-01-20 00:50:00,49.3,47.9,30.14,SSE,148,0.0,0.0,95,0.00,,,0.00,Wunderground v.1.15,2013-01-20 05:50:00,
2013-01-20 01:00:00,49.4,48.3,30.14,SSE,148,0.0,0.0,96,0.00,,,0.00,Wunderground v.1.15,2013-01-20 06:00:00,
2013-01-20 01:10:00,48.8,47.4,30.14,SSE,148,0.0,0.0,95,0.00,,,0.00,Wunderground v.1.15,2013-01-20 06:10:00,
2013-01-20 01:20:00,47.8,46.4,30.13,SSE,148,0.0,0.0,95,0.00,,,0.00,Wunderground v.1.15,2013-01-20 06:20:00,
2013-01-20 01:30:00,47.4,46.0,30.13,SSE,148,0.0,0.0,95,0.00,,,0.00,Wunderground v.1.15,2013-01-20 06:30:00,
2013-01-20 01:40:00,47.5,46.1,30.13,SSE,148,0.0,0.0,95,0.00,,,0.00,Wunderground v.1.15,2013-01-20 06:40:00,
2013-01-20 01:50:00,47.5,46.1,30.13,South,178,0.0,0.0,95,0.00,,,0.00,Wunderground v.1.15,2013-01-20 06:50:00,
2013-01-20 02:00:00,47.5,46.1,30.13,South,178,0.0,0.0,95,0.00,,,0.00,Wunderground v.1.15,2013-01-20 07:00:00,
2013-01-20 02:10:00,47.2,45.8,30.13,South,178,0.0,0.0,95,0.00,,,0.00,Wunderground v.1.15,2013-01-20 07:10:00,
2013-01-20 02:20:00,47.0,45.6,30.13,South,178,0.0,0.0,95,0.00,,,0.00,Wunderground v.1.15,2013-01-20 07:20:00,
2013-01-20 02:30:00,46.6,45.2,30.13,South,178,0.0,0.0,95,0.00,,,0.00,Wunderground v.1.15,2013-01-20 07:30:00,
2013-01-20 02:40:00,46.6,45.2,30.13,SW,226,0.0,0.0,95,0.00,,,0.00,Wunderground v.1.15,2013-01-20 07:40:00,
2013-01-20 02:50:00,46.5,45.1,30.12,SW,227,0.0,0.0,95,0.00,,,0.00,Wunderground v.1.15,2013-01-20 07:50:00,
2013-01-20 03:00:00,46.8,45.7,30.12,WSW,252,0.0,0.0,96,0.00,,,0.00,Wunderground v.1.15,2013-01-20 08:00:00,
2013-01-20 03:10:00,47.1,46.0,30.11,WSW,252,0.0,0.0,96,0.00,,,0.00,Wunderground v.1.15,2013-01-20 08:10:00,
2013-01-20 03:20:00,47.3,46.2,30.11,WSW,252,0.0,0.0,96,0.00,,,0.00,Wunderground v.1.15,2013-01-20 08:20:00,
2013-01-20 03:30:00,47.2,46.1,30.11,WSW,252,0.0,0.0,96,0.00,,,0.00,Wunderground v.1.15,2013-01-20 08:30:00,
2013-01-20 03:40:00,47.1,46.0,30.11,West,260,0.0,0.0,96,0.00,,,0.00,Wunderground v.1.15,2013-01-20 08:40:00,
2013-01-20 03:50:00,46.8,45.7,30.11,West,264,0.0,0.0,96,0.00,,,0.00,Wunderground v.1.15,2013-01-20 08:50:00,
2013-01-20 04:00:00,46.4,45.0,30.11,West,264,0.0,0.0,95,0.00,,,0.00,Wunderground v.1.15,2013-01-20 09:00:00,
2013-01-20 04:10:00,46.3,44.9,30.11,West,264,0.0,0.0,95,0.00,,,0.00,Wunderground v.1.15,2013-01-20 09:10:00,
2013-01-20 04:20:00,46.5,45.4,30.11,West,260,0.0,0.0,96,0.00,,,0.00,Wunderground v.1.15,2013-01-20 09:20:00,
2013-01-20 04:30:00,47.1,45.7,30.11,West,260,0.0,0.0,95,0.00,,,0.00,Wunderground v.1.15,2013-01-20 09:30:00,
2013-01-20 04:40:00,47.6,46.2,30.11,West,269,0.0,0.0,95,0.00,,,0.00,Wunderground v.1.15,2013-01-20 09:40:00,
2013-01-20 04:50:00,48.1,46.7,30.10,West,259,0.0,0.0,95,0.00,,,0.00,Wunderground v.1.15,2013-01-20 09:50:00,
2013-01-20 05:00:00,48.5,46.9,30.10,WSW,252,0.0,0.0,94,0.00,,,0.00,Wunderground v.1.15,2013-01-20 10:00:00,
2013-01-20 05:10:00,48.7,46.8,30.10,West,274,0.0,0.0,93,0.00,,,0.00,Wunderground v.1.15,2013-01-20 10:10:00,
2013-01-20 05:20:00,48.8,46.9,30.10,West,268,0.0,0.0,93,0.00,,,0.00,Wunderground v.1.15,2013-01-20 10:20:00,
2013-01-20 05:30:00,48.7,46.5,30.10,West,260,0.0,0.0,92,0.00,,,0.00,Wunderground v.1.15,2013-01-20 10:30:00,
2013-01-20 05:40:00,48.5,46.6,30.09,West,260,0.0,0.0,93,0.00,,,0.00,Wunderground v.1.15,2013-01-20 10:40:00,
2013-01-20 05:50:00,48.6,46.7,30.09,West,260,0.0,0.0,93,0.00,,,0.00,Wunderground v.1.15,2013-01-20 10:50:00,
2013-01-20 06:00:00,48.8,46.9,30.09,WSW,257,0.0,0.0,93,0.00,,,0.00,Wunderground v.1.15,2013-01-20 11:00:00,
2013-01-20 06:10:00,48.9,47.0,30.09,WSW,257,0.0,0.0,93,0.00,,,0.00,Wunderground v.1.15,2013-01-20 11:10:00,
2013-01-20 06:20:00,48.9,47.0,30.09,WSW,257,0.0,0.0,93,0.00,,,0.00,Wunderground v.1.15,2013-01-20 11:20:00,
2013-01-20 06:30:00,48.8,46.9,30.09,SW,232,0.0,0.0,93,0.00,,,0.00,Wunderground v.1.15,2013-01-20 11:30:00,
2013-01-20 06:40:00,48.8,46.9,30.09,SSW,203,0.0,0.0,93,0.00,,,0.00,Wunderground v.1.15,2013-01-20 11:40:00,
2013-01-20 06:50:00,48.9,47.0,30.10,West,260,0.0,0.0,93,0.00,,,0.00,Wunderground v.1.15,2013-01-20 11:50:00,
2013-01-20 07:00:00,49.1,47.2,30.10,WSW,252,0.0,0.0,93,0.00,,,0.00,Wunderground v.1.15,2013-01-20 12:00:00,
2013-01-20 07:10:00,49.2,47.3,30.10,West,263,0.0,0.0,93,0.00,,,0.00,Wunderground v.1.15,2013-01-20 12:10:00,
2013-01-20 07:20:00,49.5,47.6,30.10,SSE,166,0.0,0.0,93,0.00,,,0.00,Wunderground v.1.15,2013-01-20 12:20:00,
2013-01-20 07:30:00,49.7,47.8,30.10,SSW,203,0.0,0.0,93,0.00,,,0.00,Wunderground v.1.15,2013-01-20 12:30:00,
2013-01-20 07:40:00,50.0,48.1,30.11,South,188,0.0,0.0,93,0.00,,,0.00,Wunderground v.1.15,2013-01-20 12:40:00,
2013-01-20 07:50:00,50.3,48.1,30.11,West,265,0.0,0.0,92,0.00,,,0.00,Wunderground v.1.15,2013-01-20 12:50:00,
2013-01-20 08:00:00,50.7,48.2,30.11,WNW,302,0.0,0.0,91,0.00,,,0.00,Wunderground v.1.15,2013-01-20 13:00:00,
2013-01-20 08:10:00,51.1,48.3,30.11,West,269,0.0,0.0,90,0.00,,,0.00,Wunderground v.1.15,2013-01-20 13:10:00,
2013-01-20 08:20:00,51.6,48.5,30.11,West,267,0.0,0.0,89,0.00,,,0.00,Wunderground v.1.15,2013-01-20 13:20:00,
2013-01-20 08:30:00,52.2,48.1,30.11,SSW,211,0.0,0.0,86,0.00,,,0.00,Wunderground v.1.15,2013-01-20 13:30:00,
2013-01-20 08:40:00,53.0,48.6,30.10,WSW,240,0.0,0.0,85,0.00,,,0.00,Wunderground v.1.15,2013-01-20 13:40:00,
2013-01-20 08:50:00,53.7,48.7,30.11,SSW,203,0.0,0.0,83,0.00,,,0.00,Wunderground v.1.15,2013-01-20 13:50:00,
2013-01-20 09:00:00,54.3,48.9,30.11,SSW,209,0.0,0.0,82,0.00,,,0.00,Wunderground v.1.15,2013-01-20 14:00:00,
2013-01-20 09:10:00,54.8,49.1,30.11,West,259,1.0,1.0,81,0.00,,,0.00,Wunderground v.1.15,2013-01-20 14:10:00,
2013-01-20 09:20:00,55.5,49.1,30.11,WSW,241,0.0,0.0,79,0.00,,,0.00,Wunderground v.1.15,2013-01-20 14:20:00,
2013-01-20 09:30:00,56.1,49.3,30.11,West,265,0.0,0.0,78,0.00,,,0.00,Wunderground v.1.15,2013-01-20 14:30:00,
2013-01-20 09:40:00,56.3,48.5,30.11,West,272,1.0,1.0,75,0.00,,,0.00,Wunderground v.1.15,2013-01-20 14:40:00,
2013-01-20 09:50:00,57.1,49.2,30.10,West,261,1.0,1.0,75,0.00,,,0.00,Wunderground v.1.15,2013-01-20 14:50:00,
2013-01-20 10:00:00,57.6,49.0,30.10,WSW,253,1.0,2.0,73,0.00,,,0.00,Wunderground v.1.15,2013-01-20 15:00:00,
2013-01-20 10:10:00,58.0,48.6,30.11,West,269,2.0,2.0,71,0.00,,,0.00,Wunderground v.1.15,2013-01-20 15:10:00,
2013-01-20 10:20:00,58.4,49.0,30.10,WSW,250,1.0,2.0,71,0.00,,,0.00,Wunderground v.1.15,2013-01-20 15:20:00,
2013-01-20 10:30:00,58.7,48.6,30.09,WSW,237,2.0,2.0,69,0.00,,,0.00,Wunderground v.1.15,2013-01-20 15:30:00,
2013-01-20 10:40:00,58.6,48.8,30.09,West,272,2.0,2.0,70,0.00,,,0.00,Wunderground v.1.15,2013-01-20 15:40:00,
2013-01-20 10:50:00,58.6,48.8,30.09,West,265,2.0,2.0,70,0.00,,,0.00,Wunderground v.1.15,2013-01-20 15:50:00,
2013-01-20 11:00:00,59.0,48.8,30.09,WSW,244,2.0,2.0,69,0.00,,,0.00,Wunderground v.1.15,2013-01-20 16:00:00,
2013-01-20 11:10:00,58.8,48.3,30.08,SW,225,2.0,2.0,68,0.00,,,0.00,Wunderground v.1.15,2013-01-20 16:10:00,
2013-01-20 11:20:00,59.1,48.9,30.07,WSW,256,2.0,2.0,69,0.00,,,0.00,Wunderground v.1.15,2013-01-20 16:20:00,
2013-01-20 11:30:00,59.2,48.6,30.07,NW,314,2.0,2.0,68,0.00,,,0.00,Wunderground v.1.15,2013-01-20 16:30:00,
2013-01-20 11:40:00,59.4,48.8,30.06,WSW,257,2.0,3.0,68,0.00,,,0.00,Wunderground v.1.15,2013-01-20 16:40:00,
2013-01-20 11:50:00,59.7,49.5,30.05,West,267,2.0,2.0,69,0.00,,,0.00,Wunderground v.1.15,2013-01-20 16:50:00,
2013-01-20 12:00:00,60.1,49.5,30.05,West,267,2.0,2.0,68,0.00,,,0.00,Wunderground v.1.15,2013-01-20 17:00:00,
2013-01-20 12:10:00,60.7,49.3,30.03,West,263,1.0,2.0,66,0.00,,,0.00,Wunderground v.1.15,2013-01-20 17:10:00,
2013-01-20 12:20:00,61.2,49.7,30.02,SW,231,1.0,2.0,66,0.00,,,0.00,Wunderground v.1.15,2013-01-20 17:20:00,
2013-01-20 12:30:00,61.2,49.3,30.02,SW,234,2.0,2.0,65,0.00,,,0.00,Wunderground v.1.15,2013-01-20 17:30:00,
2013-01-20 12:40:00,60.9,49.1,30.01,WSW,247,2.0,2.0,65,0.00,,,0.00,Wunderground v.1.15,2013-01-20 17:40:00,
2013-01-20 12:50:00,60.9,48.6,30.00,West,271,2.0,2.0,64,0.00,,,0.00,Wunderground v.1.15,2013-01-20 17:50:00,
2013-01-20 13:00:00,61.6,49.3,30.00,West,265,1.0,1.0,64,0.00,,,0.00,Wunderground v.1.15,2013-01-20 18:00:00,
2013-01-20 13:10:00,61.7,49.8,30.00,South,189,1.0,3.0,65,0.00,,,0.00,Wunderground v.1.15,2013-01-20 18:10:00,
2013-01-20 13:20:00,61.9,49.2,29.99,West,277,1.0,1.0,63,0.00,,,0.00,Wunderground v.1.15,2013-01-20 18:20:00,
2013-01-20 13:30:00,62.0,49.3,29.99,SW,232,2.0,2.0,63,0.00,,,0.00,Wunderground v.1.15,2013-01-20 18:30:00,
2013-01-20 13:40:00,62.0,48.4,29.99,SW,234,2.0,2.0,61,0.00,,,0.00,Wunderground v.1.15,2013-01-20 18:40:00,
2013-01-20 14:00:00,62.4,47.4,29.98,WSW,253,0.0,1.0,58,0.00,,,0.00,Wunderground v.1.15,2013-01-20 19:00:00,
2013-01-20 14:10:00,62.5,46.6,29.98,SW,234,2.0,2.0,56,0.00,,,0.00,Wunderground v.1.15,2013-01-20 19:10:00,
2013-01-20 14:20:00,62.7,46.3,29.97,WSW,237,1.0,1.0,55,0.00,,,0.00,Wunderground v.1.15,2013-01-20 19:20:00,
2013-01-20 14:30:00,62.4,47.0,29.97,WSW,253,1.0,2.0,57,0.00,,,0.00,Wunderground v.1.15,2013-01-20 19:30:00,
2013-01-20 14:40:00,62.4,47.0,29.97,SW,232,1.0,1.0,57,0.00,,,0.00,Wunderground v.1.15,2013-01-20 19:40:00,
2013-01-20 14:50:00,62.0,46.6,29.97,SW,219,1.0,2.0,57,0.00,,,0.00,Wunderground v.1.15,2013-01-20 19:50:00,
2013-01-20 15:00:00,61.6,46.2,29.97,West,263,2.0,2.0,57,0.00,,,0.00,Wunderground v.1.15,2013-01-20 20:00:00,
2013-01-20 15:10:00,61.4,45.1,29.97,SSE,162,2.0,4.0,55,0.00,,,0.00,Wunderground v.1.15,2013-01-20 20:10:00,
2013-01-20 15:20:00,61.2,45.4,29.97,South,180,2.0,2.0,56,0.00,,,0.00,Wunderground v.1.15,2013-01-20 20:20:00,
2013-01-20 15:30:00,61.0,46.1,29.97,South,185,1.0,4.0,58,0.00,,,0.00,Wunderground v.1.15,2013-01-20 20:30:00,
2013-01-20 15:40:00,61.1,46.7,29.97,South,175,1.0,2.0,59,0.00,,,0.00,Wunderground v.1.15,2013-01-20 20:40:00,
2013-01-20 15:50:00,60.9,46.0,29.97,South,179,1.0,1.0,58,0.00,,,0.00,Wunderground v.1.15,2013-01-20 20:50:00,
2013-01-20 16:00:00,60.5,45.6,29.97,South,188,2.0,2.0,58,0.00,,,0.00,Wunderground v.1.15,2013-01-20 21:00:00,
2013-01-20 16:10:00,60.3,45.9,29.97,ESE,116,1.0,1.0,59,0.00,,,0.00,Wunderground v.1.15,2013-01-20 21:10:00,
2013-01-20 16:20:00,60.3,45.5,29.97,WSW,245,0.0,0.0,58,0.00,,,0.00,Wunderground v.1.15,2013-01-20 21:20:00,
2013-01-20 16:30:00,60.0,45.6,29.97,South,186,0.0,1.0,59,0.00,,,0.00,Wunderground v.1.15,2013-01-20 21:30:00,
2013-01-20 16:40:00,59.4,46.4,29.97,SW,221,0.0,0.0,62,0.00,,,0.00,Wunderground v.1.15,2013-01-20 21:40:00,
2013-01-20 16:50:00,58.8,46.2,29.98,SSW,202,0.0,0.0,63,0.00,,,0.00,Wunderground v.1.15,2013-01-20 21:50:00,
2013-01-20 17:00:00,58.0,45.9,29.98,SW,222,0.0,0.0,64,0.00,,,0.00,Wunderground v.1.15,2013-01-20 22:00:00,
2013-01-20 17:10:00,57.2,45.9,29.98,South,173,0.0,0.0,66,0.00,,,0.00,Wunderground v.1.15,2013-01-20 22:10:00,
2013-01-20 17:20:00,56.3,45.9,29.98,SSW,210,0.0,0.0,68,0.00,,,0.00,Wunderground v.1.15,2013-01-20 22:20:00,
2013-01-20 17:30:00,55.5,46.2,29.98,SSW,211,0.0,0.0,71,0.00,,,0.00,Wunderground v.1.15,2013-01-20 22:30:00,
2013-01-20 17:40:00,55.0,46.5,29.98,SW,219,0.0,0.0,73,0.00,,,0.00,Wunderground v.1.15,2013-01-20 22:40:00,
2013-01-20 17:50:00,54.8,47.0,29.99,SW,220,0.0,0.0,75,0.00,,,0.00,Wunderground v.1.15,2013-01-20 22:50:00,
2013-01-20 18:00:00,54.6,47.9,29.99,SSW,198,0.0,0.0,78,0.00,,,0.00,Wunderground v.1.15,2013-01-20 23:00:00,
2013-01-20 18:10:00,54.5,48.1,29.99,SW,225,0.0,0.0,79,0.00,,,0.00,Wunderground v.1.15,2013-01-20 23:10:00,
2013-01-20 18:20:00,54.4,48.4,30.00,SW,225,0.0,0.0,80,0.00,,,0.00,Wunderground v.1.15,2013-01-20 23:20:00,
2013-01-20 18:30:00,54.3,48.6,30.00,SW,217,0.0,0.0,81,0.00,,,0.00,Wunderground v.1.15,2013-01-20 23:30:00,
2013-01-20 18:40:00,54.1,49.1,30.00,SW,216,0.0,0.0,83,0.00,,,0.00,Wunderground v.1.15,2013-01-20 23:40:00,
2013-01-20 18:50:00,53.8,49.1,30.01,SW,216,0.0,0.0,84,0.00,,,0.00,Wunderground v.1.15,2013-01-20 23:50:00,
2013-01-20 19:00:00,53.4,49.0,30.01,SW,216,0.0,0.0,85,0.00,,,0.00,Wunderground v.1.15,2013-01-21 00:00:00,
2013-01-20 19:10:00,53.2,49.1,30.01,SW,216,0.0,0.0,86,0.00,,,0.00,Wunderground v.1.15,2013-01-21 00:10:00,
2013-01-20 19:20:00,53.0,49.2,30.02,SW,216,0.0,0.0,87,0.00,,,0.00,Wunderground v.1.15,2013-01-21 00:20:00,
2013-01-20 19:30:00,52.8,49.3,30.02,SW,216,0.0,0.0,88,0.00,,,0.00,Wunderground v.1.15,2013-01-21 00:30:00,
2013-01-20 19:40:00,52.6,49.1,30.02,SW,216,0.0,0.0,88,0.00,,,0.00,Wunderground v.1.15,2013-01-21 00:40:00,
2013-01-20 19:50:00,52.3,49.2,30.02,SW,216,0.0,0.0,89,0.00,,,0.00,Wunderground v.1.15,2013-01-21 00:50:00,
2013-01-20 20:00:00,52.1,49.0,30.02,SW,216,0.0,0.0,89,0.00,,,0.00,Wunderground v.1.15,2013-01-21 01:00:00,
2013-01-20 20:10:00,51.9,48.8,30.02,SW,216,0.0,0.0,89,0.00,,,0.00,Wunderground v.1.15,2013-01-21 01:10:00,
2013-01-20 20:20:00,51.8,48.7,30.02,SW,216,0.0,0.0,89,0.00,,,0.00,Wunderground v.1.15,2013-01-21 01:20:00,
2013-01-20 20:30:00,51.6,48.8,30.03,SW,216,0.0,0.0,90,0.00,,,0.00,Wunderground v.1.15,2013-01-21 01:30:00,
2013-01-20 20:40:00,51.3,48.5,30.03,SW,216,0.0,0.0,90,0.00,,,0.00,Wunderground v.1.15,2013-01-21 01:40:00,
2013-01-20 20:50:00,50.9,48.1,30.03,SW,216,0.0,0.0,90,0.00,,,0.00,Wunderground v.1.15,2013-01-21 01:50:00,
2013-01-20 21:00:00,50.5,48.0,30.03,SW,216,0.0,0.0,91,0.00,,,0.00,Wunderground v.1.15,2013-01-21 02:00:00,
2013-01-20 21:10:00,50.2,47.7,30.03,SW,216,0.0,0.0,91,0.00,,,0.00,Wunderground v.1.15,2013-01-21 02:10:00,
2013-01-20 21:20:00,49.9,47.7,30.04,SW,216,0.0,0.0,92,0.00,,,0.00,Wunderground v.1.15,2013-01-21 02:20:00,
2013-01-20 21:30:00,49.5,47.3,30.05,SW,216,0.0,0.0,92,0.00,,,0.00,Wunderground v.1.15,2013-01-21 02:30:00,
2013-01-20 21:40:00,49.4,47.2,30.05,SW,216,0.0,0.0,92,0.00,,,0.00,Wunderground v.1.15,2013-01-21 02:40:00,
2013-01-20 21:50:00,49.2,46.7,30.05,SW,216,0.0,0.0,91,0.00,,,0.00,Wunderground v.1.15,2013-01-21 02:50:00,
2013-01-20 22:00:00,49.1,46.3,30.05,SW,216,0.0,0.0,90,0.00,,,0.00,Wunderground v.1.15,2013-01-21 03:00:00,
2013-01-20 22:10:00,48.8,45.7,30.05,SW,216,0.0,0.0,89,0.00,,,0.00,Wunderground v.1.15,2013-01-21 03:10:00,
2013-01-20 22:20:00,48.6,45.2,30.05,SW,216,0.0,0.0,88,0.00,,,0.00,Wunderground v.1.15,2013-01-21 03:20:00,
2013-01-20 22:30:00,48.1,44.4,30.05,SW,216,0.0,0.0,87,0.00,,,0.00,Wunderground v.1.15,2013-01-21 03:30:00,
2013-01-20 22:40:00,48.0,44.0,30.05,SW,216,0.0,0.0,86,0.00,,,0.00,Wunderground v.1.15,2013-01-21 03:40:00,
2013-01-20 22:50:00,47.8,43.5,30.05,SW,216,0.0,0.0,85,0.00,,,0.00,Wunderground v.1.15,2013-01-21 03:50:00,
2013-01-20 23:00:00,47.7,43.1,30.05,SW,216,0.0,0.0,84,0.00,,,0.00,Wunderground v.1.15,2013-01-21 04:00:00,
2013-01-20 23:10:00,47.6,42.7,30.05,SW,216,0.0,0.0,83,0.00,,,0.00,Wunderground v.1.15,2013-01-21 04:10:00,
2013-01-20 23:20:00,47.4,42.2,30.05,SW,216,0.0,0.0,82,0.00,,,0.00,Wunderground v.1.15,2013-01-21 04:20:00,
2013-01-20 23:30:00,46.9,41.7,30.05,SW,216,0.0,0.0,82,0.00,,,0.00,Wunderground v.1.15,2013-01-21 04:30:00,
2013-01-20 23:40:00,46.1,40.9,30.05,SW,216,0.0,0.0,82,0.00,,,0.00,Wunderground v.1.15,2013-01-21 04:40:00,
2013-01-20 23:50:00,45.2,40.3,30.05,SW,216,0.0,0.0,83,0.00,,,0.00,Wunderground v.1.15,2013-01-21 04:50:00,